Hovedside
METAR-TAF:

METAR-TAF

Lufthavner :

Sandane, Norge

Sandane lufthamn

breddegrad: 61-50N, lengdegrad: 006-07E, høyde over havet: 6 m

Gjeldene værobservasjon

Denne rapporten ble laget for 26 minutter siden, klokken 04:20 UTC
Vind 4 kt fra Vest, skiftende mellom Sør og Nordvest
Temperatur 1°C
Luftfuktighet 75%
Trykk 1004 hPa
Sikt 10 km eller mer
Få skyer i en høyde av 4500 ft
Spredte skyer i en høyde av 6500 ft

METAR: ENSD 250420Z 26004KT 180V320 9999 FEW045 SCT065 01/M03 Q1004 RMK WIND 1138FT 31007KT

Tid: 06:46 (04:46 UTC)


TAF: fraværende

Værobservasjoner og værvarsel for over 4000 flyplasser (METAR- og TAF-rapporter).

Tilgjengelige stasjoner er representert av de røde og gule prikkene på kartet.

Hold musepekeren over prikken for å se navnet på stasjonen.

Klikk så for å se værobservasjoner og -varsler.

For å forandre kartet kan du klikke på den grønne knappen med svart kryss for å zoome inn, på den grønne knappen med strek for å zoome ut, eller på de grønne pilene for å se tilstøtende kart.


METAR-TAF: